Rovaniemi, Finland

8:20 PM EEST on August 31, 2016 (GMT +0300)
Arctic Power, Lapland UAS | | Change Station

Elev 590 ft 66.55 °N, 25.82 °E | Updated 5 seconds ago

Mostly Cloudy
Mostly Cloudy
52.2 °F
Feels Like 52.2 °F
N
0.0
Wind Variable Wind from North

Today
High -- | Low -- °F
--% Chance of Precip.
Yesterday
High -- | Low -- °F
Precip. -- in
Pressure 29.77 in
Visibility 6.2 miles
Clouds Few 3200 ft
Scattered Clouds 10000 ft
Mostly Cloudy 12000 ft
Dew Point 43 °F
Humidity 74%
Rainfall 0.00 in
Snow Depth Not available.
5:47 AM 8:44 PM
Waning Crescent, 0% visible
METAR EFRO 311650Z AUTO 17009KT 9999 FEW032 SCT100 BKN120 11/05 Q1008
Pressure 29.77 in
Visibility 6.2 miles
Clouds Few 3200 ft
Scattered Clouds 10000 ft
Mostly Cloudy 12000 ft
Dew Point 43 °F
Humidity 74%
Rainfall 0.00 in
Snow Depth Not available.
5:47 AM 8:44 PM
Waning Crescent, 0% visible
METAR EFRO 311650Z AUTO 17009KT 9999 FEW032 SCT100 BKN120 11/05 Q1008

10-Day Weather Forecast

×

Almanac

Astronomy

Aug. 31, 2016 Rise Set
Actual Time
Civil Twilight
Nautical Twilight
Astronomical Twilight
Moon
Length of Visible Light
Length of Day
Tomorrow will be .
, % of the Moon is Illuminated

Today's Extremes

Country Highs Country Lows

Community

WunderPhotos

Upload Photos

1,936,135 photos uploaded!

WunderBlog® & News

Nearby

Air Quality

  Air Quality AQ Index Pollutant
Not available.

Snow Depth

Station Depth Elevation

Earthquake Activity

City Distance Mag. Time & Date
Minimum magnitude displayed is 2.5.

Coastal Water Temperatures

Place Temperature

Stations

Nearby Weather Stations

Station Location Temp. Windchill Dew Point Humidity Wind Precip. Elev Updated Type